createdAt,value
2023-04-12T00:01:22.370Z,97792.13
2023-04-12T00:03:27.416Z,97788.91
2023-04-12T00:05:32.144Z,97784.78
2023-04-12T00:07:38.540Z,97781.53
2023-04-12T00:09:43.435Z,97783.28
2023-04-12T00:11:51.013Z,97776.13
2023-04-12T00:13:56.279Z,97782.19
2023-04-12T00:16:01.495Z,97781.13
2023-04-12T00:18:06.681Z,97772.56
2023-04-12T00:20:13.965Z,97766.59
2023-04-12T00:22:19.063Z,97762.41
2023-04-12T00:24:23.925Z,97758.09
2023-04-12T00:26:28.791Z,97754.00
2023-04-12T00:28:36.322Z,97748.91
2023-04-12T00:30:41.759Z,97741.91
2023-04-12T00:32:46.717Z,97748.31
2023-04-12T00:34:51.628Z,97738.13
2023-04-12T00:36:58.784Z,97739.03
2023-04-12T00:39:03.918Z,97738.13
2023-04-12T00:41:09.639Z,97736.31
2023-04-12T00:43:15.784Z,97731.91
2023-04-12T00:45:23.956Z,97719.72
2023-04-12T00:47:29.767Z,97719.59
2023-04-12T00:49:36.408Z,97714.50
2023-04-12T00:51:41.444Z,97714.28
2023-04-12T00:53:46.625Z,97716.28
2023-04-12T00:55:52.678Z,97717.25
2023-04-12T00:58:00.064Z,97717.34
2023-04-12T01:00:05.100Z,97721.66
2023-04-12T01:02:12.809Z,97719.84
2023-04-12T01:04:18.775Z,97713.00
2023-04-12T01:06:35.497Z,97707.94
2023-04-12T01:08:53.848Z,97706.97
2023-04-12T01:11:08.377Z,97708.69
2023-04-12T01:13:26.954Z,97708.47
2023-04-12T01:15:37.355Z,97701.53
2023-04-12T01:17:50.621Z,97692.53
2023-04-12T01:20:13.805Z,97689.00
2023-04-12T01:22:32.998Z,97691.56
2023-04-12T01:24:49.360Z,97687.34
2023-04-12T01:26:55.043Z,97683.94
2023-04-12T01:29:07.617Z,97684.75
2023-04-12T01:31:14.762Z,97682.91
2023-04-12T01:33:21.345Z,97679.69
2023-04-12T01:35:34.925Z,97674.22
2023-04-12T01:37:40.524Z,97671.56
2023-04-12T01:39:45.669Z,97671.56
2023-04-12T01:41:50.731Z,97668.88
2023-04-12T01:43:55.862Z,97663.75
2023-04-12T01:46:03.274Z,97665.72
2023-04-12T01:48:12.613Z,97664.13
2023-04-12T01:50:24.345Z,97668.53
2023-04-12T01:52:34.042Z,97667.59
2023-04-12T01:54:44.519Z,97669.44
2023-04-12T01:56:53.224Z,97666.06
2023-04-12T01:59:00.185Z,97660.63
2023-04-12T02:01:09.953Z,97662.00
2023-04-12T02:03:17.881Z,97655.75
2023-04-12T02:05:23.386Z,97647.22
2023-04-12T02:07:31.093Z,97637.63
2023-04-12T02:09:39.900Z,97639.50
2023-04-12T02:11:44.767Z,97630.34
2023-04-12T02:13:49.658Z,97625.22
2023-04-12T02:15:54.716Z,97630.41
2023-04-12T02:18:03.509Z,97621.63
2023-04-12T02:20:12.145Z,97624.97
2023-04-12T02:22:17.428Z,97623.03
2023-04-12T02:24:22.474Z,97615.13
2023-04-12T02:26:27.773Z,97606.50
2023-04-12T02:28:34.839Z,97605.47
2023-04-12T02:30:41.896Z,97607.00
2023-04-12T02:32:48.591Z,97598.94
2023-04-12T02:35:03.939Z,97603.94
2023-04-12T02:37:09.798Z,97606.72
2023-04-12T02:39:14.809Z,97599.03
2023-04-12T02:41:20.850Z,97598.25
2023-04-12T02:43:26.992Z,97605.31
2023-04-12T02:45:37.974Z,97589.75
2023-04-12T02:47:43.700Z,97586.31
2023-04-12T02:49:49.263Z,97603.75
2023-04-12T02:51:59.044Z,97602.91
2023-04-12T02:54:11.414Z,97599.44
2023-04-12T02:56:30.033Z,97590.75
2023-04-12T02:58:44.337Z,97585.47
2023-04-12T03:00:53.328Z,97578.47
2023-04-12T03:03:04.525Z,97581.75
2023-04-12T03:05:11.068Z,97573.09
2023-04-12T03:07:24.125Z,97567.75
2023-04-12T03:09:32.426Z,97559.13
2023-04-12T03:11:37.455Z,97555.66
2023-04-12T03:13:44.113Z,97553.09
2023-04-12T03:15:50.338Z,97554.69
2023-04-12T03:17:56.236Z,97552.88
2023-04-12T03:20:08.198Z,97553.72
2023-04-12T03:22:13.869Z,97543.44
2023-04-12T03:24:25.983Z,97539.06
2023-04-12T03:26:31.402Z,97540.84
2023-04-12T03:28:39.741Z,97540.25
2023-04-12T03:30:44.844Z,97539.50
2023-04-12T03:32:50.543Z,97539.56
2023-04-12T03:34:55.916Z,97540.66
2023-04-12T03:37:04.089Z,97532.13
2023-04-12T03:39:18.651Z,97533.94
2023-04-12T03:41:31.473Z,97527.69
2023-04-12T03:43:39.729Z,97529.31
2023-04-12T03:45:54.075Z,97527.56
2023-04-12T03:47:59.469Z,97525.75
2023-04-12T03:50:12.038Z,97527.22
2023-04-12T03:52:20.897Z,97527.13
2023-04-12T03:54:25.991Z,97523.84
2023-04-12T03:56:47.096Z,97519.44
2023-04-12T03:59:00.495Z,97519.50
2023-04-12T04:01:07.022Z,97517.69
2023-04-12T04:03:15.571Z,97518.22
2023-04-12T04:05:31.646Z,97522.31
2023-04-12T04:07:37.382Z,97510.94
2023-04-12T04:09:42.538Z,97508.19
2023-04-12T04:11:51.856Z,97500.28
2023-04-12T04:13:59.224Z,97504.47
2023-04-12T04:16:07.205Z,97506.19
2023-04-12T04:18:12.296Z,97504.56
2023-04-12T04:20:18.233Z,97498.47
2023-04-12T04:22:29.620Z,97504.47
2023-04-12T04:24:39.241Z,97505.31
2023-04-12T04:26:45.828Z,97496.84
2023-04-12T04:29:05.214Z,97488.13
2023-04-12T04:31:17.933Z,97481.97
2023-04-12T04:33:26.901Z,97482.59
2023-04-12T04:35:34.483Z,97477.41
2023-04-12T04:37:56.271Z,97480.84
2023-04-12T04:40:08.455Z,97477.34
2023-04-12T04:42:16.038Z,97468.69
2023-04-12T04:44:41.043Z,97468.78
2023-04-12T04:46:48.958Z,97470.38
2023-04-12T04:48:55.419Z,97473.00
2023-04-12T04:51:00.364Z,97477.41
2023-04-12T04:53:05.245Z,97484.19
2023-04-12T04:55:13.314Z,97473.75
2023-04-12T04:57:22.661Z,97464.97
2023-04-12T04:59:27.724Z,97472.75
2023-04-12T05:01:47.350Z,97475.28
2023-04-12T05:03:56.081Z,97476.13
2023-04-12T05:06:04.714Z,97466.28
2023-04-12T05:08:11.322Z,97466.91
2023-04-12T05:10:16.465Z,97466.84
2023-04-12T05:12:22.016Z,97468.34
2023-04-12T05:14:41.654Z,97461.78
2023-04-12T05:16:53.409Z,97456.31
2023-04-12T05:18:58.507Z,97450.34
2023-04-12T05:21:05.690Z,97449.41
2023-04-12T05:23:10.866Z,97450.63
2023-04-12T05:25:16.129Z,97452.47
2023-04-12T05:27:29.758Z,97447.41
2023-04-12T05:29:36.139Z,97447.25
2023-04-12T05:31:43.944Z,97444.66
2023-04-12T05:33:58.829Z,97435.06
2023-04-12T05:36:10.092Z,97435.75
2023-04-12T05:38:15.122Z,97437.50
2023-04-12T05:40:22.704Z,97437.03
2023-04-12T05:42:30.276Z,97432.47
2023-04-12T05:44:38.817Z,97444.47
2023-04-12T05:46:47.814Z,97438.88
2023-04-12T05:48:53.904Z,97434.38
2023-04-12T05:51:01.386Z,97423.69
2023-04-12T05:53:06.423Z,97431.22
2023-04-12T05:55:12.812Z,97433.59
2023-04-12T05:57:20.199Z,97429.84
2023-04-12T05:59:26.930Z,97435.72
2023-04-12T06:01:33.576Z,97439.00
2023-04-12T06:03:41.849Z,97430.47
2023-04-12T06:05:48.382Z,97430.53
2023-04-12T06:07:55.814Z,97421.75
2023-04-12T06:10:00.749Z,97431.47
2023-04-12T06:12:05.753Z,97422.84
2023-04-12T06:14:14.476Z,97418.22
2023-04-12T06:16:20.003Z,97418.81
2023-04-12T06:18:25.038Z,97409.34
2023-04-12T06:20:30.198Z,97413.63
2023-04-12T06:22:35.395Z,97414.09
2023-04-12T06:24:42.929Z,97407.97
2023-04-12T06:26:49.493Z,97411.56
2023-04-12T06:28:54.698Z,97405.88
2023-04-12T06:30:59.926Z,97409.69
2023-04-12T06:33:07.319Z,97422.34
2023-04-12T06:35:12.684Z,97410.97
2023-04-12T06:37:17.414Z,97410.03
2023-04-12T06:39:22.306Z,97399.69
2023-04-12T06:41:29.842Z,97406.75
2023-04-12T06:43:39.739Z,97399.78
2023-04-12T06:45:44.713Z,97403.47
2023-04-12T06:47:50.283Z,97404.31
2023-04-12T06:49:58.221Z,97406.06
2023-04-12T06:52:03.298Z,97407.00
2023-04-12T06:54:08.285Z,97403.22
2023-04-12T06:56:13.169Z,97399.78
2023-04-12T06:58:21.062Z,97391.91
2023-04-12T07:00:26.802Z,97384.59
2023-04-12T07:02:31.972Z,97385.00
2023-04-12T07:04:37.591Z,97390.28
2023-04-12T07:06:42.798Z,97380.03
2023-04-12T07:08:47.441Z,97381.72
2023-04-12T07:10:56.581Z,97371.03
2023-04-12T07:13:03.817Z,97366.13
2023-04-12T07:15:12.328Z,97369.31
2023-04-12T07:17:17.420Z,97371.31
2023-04-12T07:19:22.269Z,97372.09
2023-04-12T07:21:27.844Z,97364.97
2023-04-12T07:23:32.797Z,97363.53
2023-04-12T07:25:40.611Z,97369.50
2023-04-12T07:27:45.555Z,97368.56
2023-04-12T07:29:50.506Z,97354.00
2023-04-12T07:31:57.940Z,97351.25
2023-04-12T07:34:03.075Z,97351.41
2023-04-12T07:36:09.366Z,97348.03
2023-04-12T07:38:16.561Z,97347.72
2023-04-12T07:40:25.011Z,97346.75
2023-04-12T07:42:29.903Z,97338.13
2023-04-12T07:44:38.507Z,97344.00
2023-04-12T07:46:44.066Z,97350.03
2023-04-12T07:48:51.609Z,97336.38
2023-04-12T07:50:56.690Z,97340.31
2023-04-12T07:53:21.325Z,97329.00
2023-04-12T07:55:26.526Z,97325.41
2023-04-12T07:57:33.565Z,97323.22
2023-04-12T07:59:39.062Z,97319.47
2023-04-12T08:01:43.937Z,97324.50
2023-04-12T08:03:51.931Z,97315.28
2023-04-12T08:05:57.169Z,97319.91
2023-04-12T08:08:01.845Z,97308.50
2023-04-12T08:10:07.201Z,97310.38
2023-04-12T08:12:12.111Z,97305.25
2023-04-12T08:14:16.984Z,97297.59
2023-04-12T08:16:22.171Z,97299.47
2023-04-12T08:18:28.429Z,97284.28
2023-04-12T08:20:35.974Z,97285.47
2023-04-12T08:22:41.244Z,97286.13
2023-04-12T08:24:46.566Z,97285.88
2023-04-12T08:26:51.758Z,97290.78
2023-04-12T08:28:57.657Z,97285.78
2023-04-12T08:31:02.599Z,97282.50
2023-04-12T08:33:07.624Z,97268.31
2023-04-12T08:35:12.828Z,97268.91
2023-04-12T08:37:20.089Z,97270.56
2023-04-12T08:39:25.000Z,97266.38
2023-04-12T08:41:29.989Z,97266.19
2023-04-12T08:43:36.568Z,97262.84
2023-04-12T08:45:41.836Z,97264.34
2023-04-12T08:47:47.695Z,97258.03
2023-04-12T08:49:52.805Z,97248.19
2023-04-12T08:51:59.209Z,97258.59
2023-04-12T08:54:07.852Z,97245.19
2023-04-12T08:56:14.103Z,97239.81
2023-04-12T08:58:19.178Z,97234.34
2023-04-12T09:00:24.931Z,97238.91
2023-04-12T09:02:30.347Z,97229.91
2023-04-12T09:04:35.405Z,97224.81
2023-04-12T09:06:41.743Z,97225.63
2023-04-12T09:08:57.522Z,97217.81
2023-04-12T09:11:04.775Z,97212.53
2023-04-12T09:13:10.101Z,97201.00
2023-04-12T09:15:18.556Z,97210.81
2023-04-12T09:17:27.070Z,97202.09
2023-04-12T09:19:36.135Z,97200.69
2023-04-12T09:21:55.304Z,97196.59
2023-04-12T09:24:12.363Z,97201.06
2023-04-12T09:26:32.489Z,97190.47
2023-04-12T09:28:37.353Z,97182.00
2023-04-12T09:30:45.134Z,97177.72
2023-04-12T09:32:51.326Z,97177.06
2023-04-12T09:35:01.469Z,97169.84
2023-04-12T09:37:16.426Z,97162.75
2023-04-12T09:39:21.295Z,97164.63
2023-04-12T09:41:27.589Z,97163.97
2023-04-12T09:43:44.553Z,97154.50
2023-04-12T09:45:49.500Z,97155.31
2023-04-12T09:47:55.274Z,97161.28
2023-04-12T09:50:00.606Z,97160.28
2023-04-12T09:52:05.367Z,97153.66
2023-04-12T09:54:12.931Z,97152.53
2023-04-12T09:56:17.989Z,97146.06
2023-04-12T09:58:23.756Z,97151.81
2023-04-12T10:00:34.555Z,97147.53
2023-04-12T10:02:41.604Z,97135.72
2023-04-12T10:04:47.487Z,97133.41
2023-04-12T10:06:52.577Z,97129.75
2023-04-12T10:08:59.291Z,97117.06
2023-04-12T10:11:04.423Z,97118.44
2023-04-12T10:13:10.441Z,97115.75
2023-04-12T10:15:18.000Z,97119.94
2023-04-12T10:17:28.487Z,97108.56
2023-04-12T10:19:34.800Z,97109.22
2023-04-12T10:21:39.897Z,97106.22
2023-04-12T10:23:47.493Z,97098.28
2023-04-12T10:25:55.611Z,97087.41
2023-04-12T10:28:00.768Z,97086.94
2023-04-12T10:30:27.296Z,97087.84
2023-04-12T10:32:35.532Z,97072.22
2023-04-12T10:34:45.477Z,97059.84
2023-04-12T10:36:57.752Z,97050.25
2023-04-12T10:39:12.472Z,97049.97
2023-04-12T10:41:19.895Z,97053.44
2023-04-12T10:43:27.956Z,97048.53
2023-04-12T10:45:40.215Z,97048.03
2023-04-12T10:48:04.198Z,97049.63
2023-04-12T10:50:26.733Z,97039.88
2023-04-12T10:52:39.406Z,97034.78
2023-04-12T10:54:44.657Z,97029.16
2023-04-12T10:56:51.514Z,97038.78
2023-04-12T10:59:09.841Z,97026.66
2023-04-12T11:01:23.695Z,97028.84
2023-04-12T11:03:31.698Z,97024.88
2023-04-12T11:06:16.153Z,97021.31
2023-04-12T11:08:49.388Z,97025.28
2023-04-12T11:11:04.859Z,97024.47
2023-04-12T11:13:14.357Z,97028.63
2023-04-12T11:15:19.828Z,97027.19
2023-04-12T11:17:30.912Z,97023.31
2023-04-12T11:19:40.753Z,97016.84
2023-04-12T11:21:46.822Z,97014.34
2023-04-12T11:23:52.048Z,97013.94
2023-04-12T11:25:57.523Z,97018.28
2023-04-12T11:28:11.066Z,97024.13
2023-04-12T11:30:23.830Z,97025.50
2023-04-12T11:32:29.995Z,97019.88
2023-04-12T11:34:38.981Z,97021.44
2023-04-12T11:36:45.351Z,97011.22
2023-04-12T11:38:50.464Z,97011.13
2023-04-12T11:40:55.703Z,97012.16
2023-04-12T11:43:00.645Z,97010.16
2023-04-12T11:45:13.985Z,97007.22
2023-04-12T11:47:24.136Z,97000.03
2023-04-12T11:49:29.224Z,96986.09
2023-04-12T11:51:36.841Z,96963.44
2023-04-12T11:53:41.963Z,96972.44
2023-04-12T11:55:51.154Z,96955.38
2023-04-12T11:57:57.215Z,96967.47
2023-04-12T12:00:06.244Z,96967.78
2023-04-12T12:02:23.608Z,96968.09
2023-04-12T12:04:30.832Z,96969.34
2023-04-12T12:06:39.160Z,96963.91
2023-04-12T12:08:44.775Z,96980.00
2023-04-12T12:11:04.560Z,96974.78
2023-04-12T12:13:14.321Z,96967.78
2023-04-12T12:15:19.485Z,96968.84
2023-04-12T12:17:24.205Z,96967.69
2023-04-12T12:19:31.879Z,96979.91
2023-04-12T12:21:39.359Z,96967.16
2023-04-12T12:23:46.344Z,96971.47
2023-04-12T12:25:51.602Z,96967.16
2023-04-12T12:28:00.458Z,96964.13
2023-04-12T12:30:06.577Z,96965.28
2023-04-12T12:32:16.112Z,96952.13
2023-04-12T12:34:22.351Z,96932.00
2023-04-12T12:36:34.393Z,96938.88
2023-04-12T12:38:43.291Z,96925.59
2023-04-12T12:40:48.360Z,96920.88
2023-04-12T12:42:55.157Z,96926.81
2023-04-12T12:45:00.188Z,96923.78
2023-04-12T12:47:14.165Z,96907.69
2023-04-12T12:49:19.818Z,96910.69
2023-04-12T12:51:24.879Z,96911.50
2023-04-12T12:53:29.782Z,96911.28
2023-04-12T12:55:37.452Z,96911.91
2023-04-12T12:57:42.792Z,96911.06
2023-04-12T12:59:47.455Z,96911.41
2023-04-12T13:01:52.414Z,96913.41
2023-04-12T13:03:59.237Z,96916.63
2023-04-12T13:06:04.252Z,96912.53
2023-04-12T13:08:09.179Z,96911.72
2023-04-12T13:10:14.702Z,96901.00
2023-04-12T13:12:22.235Z,96899.63
2023-04-12T13:14:27.574Z,96899.13
2023-04-12T13:16:32.542Z,96888.94
2023-04-12T13:18:37.735Z,96886.22
2023-04-12T13:20:42.804Z,96881.00
2023-04-12T13:22:47.963Z,96874.56
2023-04-12T13:24:53.358Z,96873.03
2023-04-12T13:26:58.483Z,96870.78
2023-04-12T13:29:06.017Z,96851.41
2023-04-12T13:31:11.009Z,96861.47
2023-04-12T13:33:19.983Z,96864.69
2023-04-12T13:35:26.704Z,96851.41
2023-04-12T13:37:31.640Z,96848.53
2023-04-12T13:39:37.139Z,96847.00
2023-04-12T13:41:42.057Z,96833.31
2023-04-12T13:43:47.043Z,96827.16
2023-04-12T13:45:54.723Z,96838.78
2023-04-12T13:47:59.882Z,96831.50
2023-04-12T13:50:04.925Z,96831.84
2023-04-12T13:52:10.392Z,96831.16
2023-04-12T13:54:15.814Z,96830.28
2023-04-12T13:56:20.990Z,96823.16
2023-04-12T13:58:26.180Z,96815.34
2023-04-12T14:00:30.868Z,96811.78
2023-04-12T14:02:38.509Z,96802.53
2023-04-12T14:04:55.272Z,96805.59
2023-04-12T14:07:03.792Z,96810.59
2023-04-12T14:09:09.090Z,96813.69
2023-04-12T14:11:14.051Z,96816.78
2023-04-12T14:13:19.127Z,96811.69
2023-04-12T14:15:24.358Z,96810.84
2023-04-12T14:17:32.755Z,96801.09
2023-04-12T14:19:40.732Z,96803.25
2023-04-12T14:21:45.836Z,96801.34
2023-04-12T14:23:51.023Z,96805.38
2023-04-12T14:25:56.347Z,96796.09
2023-04-12T14:28:01.661Z,96798.25
2023-04-12T14:30:07.904Z,96796.44
2023-04-12T14:32:12.836Z,96797.66
2023-04-12T14:34:17.829Z,96791.47
2023-04-12T14:36:27.907Z,96786.38
2023-04-12T14:38:32.859Z,96784.00
2023-04-12T14:40:37.783Z,96768.66
2023-04-12T14:42:42.845Z,96776.00
2023-04-12T14:44:47.849Z,96769.94
2023-04-12T14:46:52.887Z,96776.81
2023-04-12T14:49:01.287Z,96768.25
2023-04-12T14:51:06.851Z,96763.47
2023-04-12T14:53:16.508Z,96756.47
2023-04-12T14:55:21.702Z,96754.53
2023-04-12T14:57:26.765Z,96755.22
2023-04-12T14:59:31.770Z,96746.03
2023-04-12T15:01:38.041Z,96744.28
2023-04-12T15:03:45.324Z,96736.16
2023-04-12T15:05:50.267Z,96736.31
2023-04-12T15:07:55.170Z,96740.47
2023-04-12T15:10:04.285Z,96733.78
2023-04-12T15:12:10.955Z,96734.63
2023-04-12T15:14:18.095Z,96731.25
2023-04-12T15:16:23.544Z,96712.56
2023-04-12T15:18:28.528Z,96716.59
2023-04-12T15:20:33.398Z,96713.69
2023-04-12T15:22:38.639Z,96710.97
2023-04-12T15:24:43.224Z,96709.81
2023-04-12T15:26:52.868Z,96704.47
2023-04-12T15:28:58.064Z,96706.53
2023-04-12T15:31:02.956Z,96693.88
2023-04-12T15:33:07.834Z,96691.25
2023-04-12T15:37:21.769Z,96689.44
2023-04-12T15:39:26.850Z,96681.03
2023-04-12T15:41:38.039Z,96687.38
2023-04-12T15:43:49.481Z,96682.41
2023-04-12T15:45:55.603Z,96679.78
2023-04-12T15:48:00.896Z,96675.69
2023-04-12T15:50:06.031Z,96669.19
2023-04-12T15:52:10.870Z,96672.63
2023-04-12T15:54:16.333Z,96673.00
2023-04-12T15:56:24.548Z,96676.19
2023-04-12T15:58:29.970Z,96676.34
2023-04-12T16:00:38.836Z,96675.63
2023-04-12T16:02:53.707Z,96666.13
2023-04-12T16:04:58.944Z,96666.66
2023-04-12T16:07:04.947Z,96665.56
2023-04-12T16:09:10.091Z,96665.41
2023-04-12T16:11:15.043Z,96662.78
2023-04-12T16:13:20.774Z,96662.59
2023-04-12T16:15:25.834Z,96652.50
2023-04-12T16:17:34.055Z,96653.56
2023-04-12T16:19:39.023Z,96656.34
2023-04-12T16:21:45.036Z,96656.16
2023-04-12T16:23:51.057Z,96652.38
2023-04-12T16:25:56.494Z,96652.38
2023-04-12T16:28:02.661Z,96654.06
2023-04-12T16:30:10.788Z,96657.63
2023-04-12T16:32:15.916Z,96656.94
2023-04-12T16:34:23.505Z,96663.38
2023-04-12T16:36:31.810Z,96661.19
2023-04-12T16:38:36.983Z,96669.41
2023-04-12T16:40:41.787Z,96671.72
2023-04-12T16:42:47.578Z,96672.81
2023-04-12T16:44:52.508Z,96685.09
2023-04-12T16:46:57.488Z,96677.22
2023-04-12T16:49:03.934Z,96668.53
2023-04-12T16:51:11.808Z,96663.97
2023-04-12T16:53:17.691Z,96675.69
2023-04-12T16:55:22.950Z,96685.72
2023-04-12T16:57:27.562Z,96672.47
2023-04-12T16:59:34.696Z,96686.19
2023-04-12T17:01:39.582Z,96675.88
2023-04-12T17:03:44.578Z,96679.72
2023-04-12T17:05:49.573Z,96696.78
2023-04-12T17:07:57.663Z,96704.78
2023-04-12T17:10:02.482Z,96710.66
2023-04-12T17:12:09.611Z,96721.00
2023-04-12T17:14:15.086Z,96730.16
2023-04-12T17:16:20.075Z,96762.69
2023-04-12T17:18:24.989Z,96763.00
2023-04-12T17:20:30.572Z,96774.94
2023-04-12T17:22:35.645Z,96765.16
2023-04-12T17:24:43.242Z,96771.66
2023-04-12T17:26:48.671Z,96782.56
2023-04-12T17:28:54.821Z,96789.56
2023-04-12T17:30:59.964Z,96785.00
2023-04-12T17:33:05.265Z,96770.41
2023-04-12T17:35:11.569Z,96786.19
2023-04-12T17:37:16.932Z,96782.44
2023-04-12T17:39:21.921Z,96784.41
2023-04-12T17:41:29.936Z,96781.09
2023-04-12T17:43:34.918Z,96778.06
2023-04-12T17:45:39.713Z,96765.78
2023-04-12T17:47:45.308Z,96790.72
2023-04-12T17:49:50.252Z,96798.03
2023-04-12T17:51:55.122Z,96806.56
2023-04-12T17:54:00.708Z,96798.44
2023-04-12T17:56:06.024Z,96799.91
2023-04-12T17:58:14.319Z,96794.25
2023-04-12T18:00:20.619Z,96792.81
2023-04-12T18:02:25.889Z,96794.00
2023-04-12T18:04:31.249Z,96812.31
2023-04-12T18:06:36.259Z,96815.66
2023-04-12T18:08:41.521Z,96822.78
2023-04-12T18:10:46.753Z,96823.81
2023-04-12T18:12:51.526Z,96815.47
2023-04-12T18:14:59.025Z,96812.34
2023-04-12T18:17:03.943Z,96813.50
2023-04-12T18:19:25.097Z,96822.09
2023-04-12T18:21:29.955Z,96817.41
2023-04-12T18:23:43.333Z,96819.94
2023-04-12T18:25:59.617Z,96830.75
2023-04-12T18:28:04.967Z,96845.13
2023-04-12T18:30:14.833Z,96837.31
2023-04-12T18:32:25.507Z,96848.28
2023-04-12T18:34:30.586Z,96848.09
2023-04-12T18:36:37.114Z,96844.97
2023-04-12T18:38:42.100Z,96858.91
2023-04-12T18:40:47.037Z,96866.22
2023-04-12T18:42:52.005Z,96877.47
2023-04-12T18:44:58.450Z,96875.59
2023-04-12T18:47:06.457Z,96873.00
2023-04-12T18:49:12.094Z,96873.41
2023-04-12T18:51:17.369Z,96872.38
2023-04-12T18:53:22.056Z,96888.03
2023-04-12T18:55:27.094Z,96903.34
2023-04-12T18:57:32.039Z,96896.97
2023-04-12T18:59:36.948Z,96902.19
2023-04-12T19:01:41.972Z,96902.81
2023-04-12T19:03:50.011Z,96910.31
2023-04-12T19:05:56.927Z,96916.38
2023-04-12T19:08:03.658Z,96905.50
2023-04-12T19:10:09.799Z,96910.63
2023-04-12T19:12:14.664Z,96902.47
2023-04-12T19:14:19.659Z,96897.47
2023-04-12T19:16:24.830Z,96882.38
2023-04-12T19:18:31.682Z,96875.91
2023-04-12T19:20:39.355Z,96901.03
2023-04-12T19:22:44.287Z,96896.31
2023-04-12T19:24:50.038Z,96899.88
2023-04-12T19:26:54.947Z,96908.44
2023-04-12T19:28:59.906Z,96905.31
2023-04-12T19:31:10.494Z,96901.25
2023-04-12T19:33:16.183Z,96897.19
2023-04-12T19:35:21.063Z,96892.78
2023-04-12T19:37:34.117Z,96901.16
2023-04-12T19:39:40.828Z,96908.22
2023-04-12T19:41:48.594Z,96896.66
2023-04-12T19:43:54.669Z,96891.13
2023-04-12T19:46:01.555Z,96879.66
2023-04-12T19:48:06.782Z,96875.94
2023-04-12T19:50:11.857Z,96871.53
2023-04-12T19:52:20.274Z,96873.94
2023-04-12T19:54:27.746Z,96884.44
2023-04-12T19:56:32.983Z,96875.81
2023-04-12T19:58:37.689Z,96877.59
2023-04-12T20:00:42.822Z,96879.25
2023-04-12T20:02:47.784Z,96881.63
2023-04-12T20:04:53.603Z,96875.06
2023-04-12T20:06:58.463Z,96876.75
2023-04-12T20:09:03.517Z,96875.72
2023-04-12T20:11:10.987Z,96890.53
2023-04-12T20:13:16.792Z,96886.97
2023-04-12T20:15:21.681Z,96886.03
2023-04-12T20:17:26.716Z,96884.16
2023-04-12T20:19:31.998Z,96875.38
2023-04-12T20:21:37.292Z,96885.94
2023-04-12T20:23:42.484Z,96888.41
2023-04-12T20:25:49.185Z,96891.16
2023-04-12T20:27:56.719Z,96898.22
2023-04-12T20:30:01.857Z,96897.50
2023-04-12T20:32:08.834Z,96896.56
2023-04-12T20:34:17.928Z,96901.88
2023-04-12T20:36:26.409Z,96905.63
2023-04-12T20:38:31.721Z,96907.50
2023-04-12T20:40:36.751Z,96901.69
2023-04-12T20:42:42.675Z,96914.28
2023-04-12T20:44:50.586Z,96909.38
2023-04-12T20:46:55.503Z,96912.28
2023-04-12T20:49:00.596Z,96915.09
2023-04-12T20:51:05.301Z,96916.34
2023-04-12T20:53:13.219Z,96916.66
2023-04-12T20:55:18.226Z,96916.03
2023-04-12T20:57:23.962Z,96913.44
2023-04-12T20:59:30.511Z,96916.03
2023-04-12T21:01:38.024Z,96911.66
2023-04-12T21:03:43.735Z,96910.81
2023-04-12T21:05:50.634Z,96916.66
2023-04-12T21:07:55.564Z,96919.16
2023-04-12T21:10:01.944Z,96914.78
2023-04-12T21:12:07.376Z,96920.31
2023-04-12T21:14:13.052Z,96920.59
2023-04-12T21:16:17.982Z,96927.56
2023-04-12T21:18:25.542Z,96926.00
2023-04-12T21:20:30.713Z,96915.50
2023-04-12T21:22:35.668Z,96912.91
2023-04-12T21:24:41.014Z,96917.16
2023-04-12T21:26:46.243Z,96921.53
2023-04-12T21:28:51.184Z,96925.91
2023-04-12T21:30:58.417Z,96935.38
2023-04-12T21:33:04.563Z,96929.25
2023-04-12T21:35:13.218Z,96933.53
2023-04-12T21:37:18.236Z,96939.69
2023-04-12T21:39:23.081Z,96944.03
2023-04-12T21:41:29.825Z,96953.41
2023-04-12T21:43:34.686Z,96954.25
2023-04-12T21:45:39.931Z,96958.63
2023-04-12T21:47:45.215Z,96959.03
2023-04-12T21:49:50.220Z,96962.66
2023-04-12T21:51:59.351Z,96964.56
2023-04-12T21:54:04.476Z,96969.03
2023-04-12T21:56:10.494Z,96971.72
2023-04-12T21:58:15.993Z,96979.53
2023-04-12T22:00:20.620Z,96982.34
2023-04-12T22:02:25.654Z,96982.34
2023-04-12T22:04:31.835Z,96985.25
2023-04-12T22:06:37.148Z,96993.06
2023-04-12T22:08:44.679Z,96982.94
2023-04-12T22:10:49.637Z,96978.66
2023-04-12T22:12:54.502Z,96986.47
2023-04-12T22:15:00.140Z,96984.78
2023-04-12T22:17:06.271Z,96982.19
2023-04-12T22:19:11.258Z,96982.50
2023-04-12T22:21:16.763Z,96992.16
2023-04-12T22:23:21.625Z,96986.88
2023-04-12T22:25:29.758Z,96984.47
2023-04-12T22:27:35.347Z,96993.19
2023-04-12T22:29:40.727Z,96993.56
2023-04-12T22:31:45.695Z,96994.72
2023-04-12T22:33:55.183Z,97005.31
2023-04-12T22:36:02.273Z,97007.19
2023-04-12T22:38:07.173Z,97004.03
2023-04-12T22:40:14.345Z,97004.22
2023-04-12T22:42:26.115Z,97008.34
2023-04-12T22:44:38.541Z,97009.16
2023-04-12T22:46:44.027Z,97012.59
2023-04-12T22:48:49.414Z,97019.00
2023-04-12T22:50:54.671Z,97030.25
2023-04-12T22:52:59.590Z,97041.59
2023-04-12T22:55:04.652Z,97051.19
2023-04-12T22:57:09.623Z,97049.09
2023-04-12T22:59:17.753Z,97051.97
2023-04-12T23:01:22.758Z,97050.94
2023-04-12T23:03:28.986Z,97061.47
2023-04-12T23:05:35.130Z,97062.50
2023-04-12T23:07:41.689Z,97069.97
2023-04-12T23:09:48.034Z,97073.53
2023-04-12T23:11:53.844Z,97072.13
2023-04-12T23:13:59.725Z,97075.94
2023-04-12T23:16:10.035Z,97074.00
2023-04-12T23:18:15.005Z,97072.06
2023-04-12T23:20:20.600Z,97070.59
2023-04-12T23:22:55.816Z,97068.41
2023-04-12T23:25:02.413Z,97072.94
2023-04-12T23:27:08.169Z,97075.44
2023-04-12T23:29:13.092Z,97070.72
2023-04-12T23:31:21.216Z,97071.28
2023-04-12T23:33:26.250Z,97075.97
2023-04-12T23:35:31.141Z,97085.63
2023-04-12T23:37:36.217Z,97082.75
2023-04-12T23:39:41.802Z,97086.00
2023-04-12T23:41:47.909Z,97085.13
2023-04-12T23:43:54.329Z,97089.25
2023-04-12T23:46:00.164Z,97081.53
2023-04-12T23:48:08.494Z,97077.16
2023-04-12T23:50:13.872Z,97077.91
2023-04-12T23:52:19.652Z,97074.91
2023-04-12T23:54:24.544Z,97067.53
2023-04-12T23:56:29.905Z,97072.81
2023-04-12T23:58:35.235Z,97059.47
